University Park Airport
KUNV : now visible

Airfield :











YOU CAN JOIN US ON...

 
LOGIN :

Register | Disclaimer

   EN    FR    IT 

 









Legend :    VFR   Marginal VFR   IFR   Intensive IFR   Very Intensive IFR
Visi :
Ceiling :
>= 8 km
>= 3000ft
5 to 8 km
1000 to 3000 ft
1500m to 5 km
500 to 1000 ft
800 to 1500m
200 to 500 ft
< 800m
< 200 ft
Symbols :   Thunderstorms  Fog  Heavy snow  Heavy precipitations  Wind > 20 kt






- Airport Elevation : 1239 ft


KUNV - University Park

CURRENT METAR :
  • 290235Z AUTO 00000KT 10SM OVC009 09/09 A2993 RMK AO2 T00850085

EXPIRED METARs :
  • 290215Z AUTO 00000KT 7SM OVC009 09/09 A2993 RMK AO2 T00850085
  • 290153Z 00000KT 5SM BR OVC011 08/08 A2993
  • 290053Z 00000KT 3SM BR BKN009 OVC013 08/08 A2992

TAF KUNV
Valid from the 29 at 00:00 until the 30 at 00:00 UTC


282348Z 2900/2924 VRB03KT 2SM -SHRA BR BKN005 OVC015
FM290400 00000KT 4SM -RA BR OVC007
FM291100 20005KT 1/2SM FG OVC003
TEMPO 2912/2914 4SM -DZ OVC007
FM291400 20005KT P6SM OVC015



MET'MAP, your aeronautical weather chart ! - Copyright ORBIFLY December 2007 - Disclaimer

ORBIFLY MET'MAP TEAM :

Programming & Development : Alexandra Zaïnal
Concept & original design : Baudouin d'Aumeries
Assistance for programming : Marc-Olivier Méhu
Technical & hardware support : Manuel Goepfert

Contact : metmap@orbifly.com




SOURCES & CREDITS :

   NOAA       Earth
Advisory